sensor_id;sensor_type;location;lat;lon;timestamp;temperature;humidity
36594;DHT22;22603;47.900;8.146;2023-09-19T00:00:20;14.20;99.90
36594;DHT22;22603;47.900;8.146;2023-09-19T00:03:10;14.30;99.90
36594;DHT22;22603;47.900;8.146;2023-09-19T00:05:58;14.20;99.90
36594;DHT22;22603;47.900;8.146;2023-09-19T00:08:45;14.20;99.90
36594;DHT22;22603;47.900;8.146;2023-09-19T00:11:32;14.20;99.90
36594;DHT22;22603;47.900;8.146;2023-09-19T00:14:20;14.20;99.90
36594;DHT22;22603;47.900;8.146;2023-09-19T00:17:09;14.20;99.90
36594;DHT22;22603;47.900;8.146;2023-09-19T00:19:58;14.20;99.90
36594;DHT22;22603;47.900;8.146;2023-09-19T00:22:52;14.20;99.90
36594;DHT22;22603;47.900;8.146;2023-09-19T00:25:39;14.20;99.90
36594;DHT22;22603;47.900;8.146;2023-09-19T00:28:27;14.10;99.90
36594;DHT22;22603;47.900;8.146;2023-09-19T00:31:15;14.10;99.90
36594;DHT22;22603;47.900;8.146;2023-09-19T00:34:02;14.00;99.90
36594;DHT22;22603;47.900;8.146;2023-09-19T00:36:53;14.00;99.90
36594;DHT22;22603;47.900;8.146;2023-09-19T00:39:40;13.90;99.90
36594;DHT22;22603;47.900;8.146;2023-09-19T00:42:27;13.90;99.90
36594;DHT22;22603;47.900;8.146;2023-09-19T00:45:16;13.80;99.90
36594;DHT22;22603;47.900;8.146;2023-09-19T00:48:03;13.80;99.90
36594;DHT22;22603;47.900;8.146;2023-09-19T00:50:58;13.80;99.90
36594;DHT22;22603;47.900;8.146;2023-09-19T00:53:51;13.80;99.90
36594;DHT22;22603;47.900;8.146;2023-09-19T00:56:38;13.80;99.90
36594;DHT22;22603;47.900;8.146;2023-09-19T00:59:25;13.80;99.90
36594;DHT22;22603;47.900;8.146;2023-09-19T01:02:12;13.80;99.90
36594;DHT22;22603;47.900;8.146;2023-09-19T01:05:00;13.80;99.90
36594;DHT22;22603;47.900;8.146;2023-09-19T01:07:46;13.70;99.90
36594;DHT22;22603;47.900;8.146;2023-09-19T01:10:36;13.70;99.90
36594;DHT22;22603;47.900;8.146;2023-09-19T01:13:30;13.70;99.90
36594;DHT22;22603;47.900;8.146;2023-09-19T01:16:32;13.70;99.90
36594;DHT22;22603;47.900;8.146;2023-09-19T01:19:46;13.70;99.90
36594;DHT22;22603;47.900;8.146;2023-09-19T01:22:43;13.70;99.90
36594;DHT22;22603;47.900;8.146;2023-09-19T01:26:07;13.70;99.90
36594;DHT22;22603;47.900;8.146;2023-09-19T01:29:13;13.70;99.90
36594;DHT22;22603;47.900;8.146;2023-09-19T01:32:06;13.80;99.90
36594;DHT22;22603;47.900;8.146;2023-09-19T01:34:56;13.80;99.90
36594;DHT22;22603;47.900;8.146;2023-09-19T01:37:49;13.80;99.90
36594;DHT22;22603;47.900;8.146;2023-09-19T01:40:41;13.80;99.90
36594;DHT22;22603;47.900;8.146;2023-09-19T01:43:33;13.80;99.90
36594;DHT22;22603;47.900;8.146;2023-09-19T01:46:25;13.80;99.90
36594;DHT22;22603;47.900;8.146;2023-09-19T01:49:25;13.80;99.90
36594;DHT22;22603;47.900;8.146;2023-09-19T01:52:14;13.80;99.90
36594;DHT22;22603;47.900;8.146;2023-09-19T01:55:05;13.80;99.90
36594;DHT22;22603;47.900;8.146;2023-09-19T01:58:00;13.80;99.90
36594;DHT22;22603;47.900;8.146;2023-09-19T02:00:50;13.80;99.90
36594;DHT22;22603;47.900;8.146;2023-09-19T02:03:38;13.80;99.90
36594;DHT22;22603;47.900;8.146;2023-09-19T02:06:28;13.80;99.90
36594;DHT22;22603;47.900;8.146;2023-09-19T02:09:15;13.80;99.90
36594;DHT22;22603;47.900;8.146;2023-09-19T02:12:03;13.80;99.90
36594;DHT22;22603;47.900;8.146;2023-09-19T02:14:50;13.80;99.90
36594;DHT22;22603;47.900;8.146;2023-09-19T02:17:36;13.80;99.90
36594;DHT22;22603;47.900;8.146;2023-09-19T02:20:24;13.80;99.90
36594;DHT22;22603;47.900;8.146;2023-09-19T02:23:14;13.80;99.90
36594;DHT22;22603;47.900;8.146;2023-09-19T02:26:01;13.80;99.90
36594;DHT22;22603;47.900;8.146;2023-09-19T02:28:49;13.80;99.90
36594;DHT22;22603;47.900;8.146;2023-09-19T02:31:35;13.80;99.90
36594;DHT22;22603;47.900;8.146;2023-09-19T02:34:23;13.80;99.90
36594;DHT22;22603;47.900;8.146;2023-09-19T02:37:10;13.80;99.90
36594;DHT22;22603;47.900;8.146;2023-09-19T02:40:00;13.80;99.90
36594;DHT22;22603;47.900;8.146;2023-09-19T02:42:48;13.70;99.90
36594;DHT22;22603;47.900;8.146;2023-09-19T02:45:35;13.70;99.90
36594;DHT22;22603;47.900;8.146;2023-09-19T02:48:22;13.70;99.90
36594;DHT22;22603;47.900;8.146;2023-09-19T02:51:10;13.60;99.90
36594;DHT22;22603;47.900;8.146;2023-09-19T02:53:57;13.50;99.90
36594;DHT22;22603;47.900;8.146;2023-09-19T02:56:45;13.50;99.90
36594;DHT22;22603;47.900;8.146;2023-09-19T02:59:32;13.50;99.90
36594;DHT22;22603;47.900;8.146;2023-09-19T03:02:19;13.50;99.90
36594;DHT22;22603;47.900;8.146;2023-09-19T03:05:10;13.50;99.90
36594;DHT22;22603;47.900;8.146;2023-09-19T03:07:58;13.50;99.90
36594;DHT22;22603;47.900;8.146;2023-09-19T03:10:46;13.50;99.90
36594;DHT22;22603;47.900;8.146;2023-09-19T03:13:34;13.40;99.90
36594;DHT22;22603;47.900;8.146;2023-09-19T03:16:23;13.40;99.90
36594;DHT22;22603;47.900;8.146;2023-09-19T03:19:10;13.50;99.90
36594;DHT22;22603;47.900;8.146;2023-09-19T03:21:57;13.50;99.90
36594;DHT22;22603;47.900;8.146;2023-09-19T03:24:43;13.50;99.90
36594;DHT22;22603;47.900;8.146;2023-09-19T03:27:31;13.40;99.90
36594;DHT22;22603;47.900;8.146;2023-09-19T03:30:20;13.40;99.90
36594;DHT22;22603;47.900;8.146;2023-09-19T03:33:07;13.40;99.90
36594;DHT22;22603;47.900;8.146;2023-09-19T03:35:53;13.40;99.90
36594;DHT22;22603;47.900;8.146;2023-09-19T03:38:40;13.40;99.90
36594;DHT22;22603;47.900;8.146;2023-09-19T03:41:27;13.40;99.90
36594;DHT22;22603;47.900;8.146;2023-09-19T03:44:14;13.20;99.90
36594;DHT22;22603;47.900;8.146;2023-09-19T03:47:02;13.30;99.90
36594;DHT22;22603;47.900;8.146;2023-09-19T03:49:50;13.20;99.90
36594;DHT22;22603;47.900;8.146;2023-09-19T03:52:37;13.20;99.90
36594;DHT22;22603;47.900;8.146;2023-09-19T03:55:24;13.10;99.90
36594;DHT22;22603;47.900;8.146;2023-09-19T03:58:10;13.10;99.90
36594;DHT22;22603;47.900;8.146;2023-09-19T04:00:57;13.10;99.90
36594;DHT22;22603;47.900;8.146;2023-09-19T04:03:46;13.20;99.90
36594;DHT22;22603;47.900;8.146;2023-09-19T04:06:33;13.20;99.90
36594;DHT22;22603;47.900;8.146;2023-09-19T04:09:21;13.20;99.90
36594;DHT22;22603;47.900;8.146;2023-09-19T04:12:08;13.20;99.90
36594;DHT22;22603;47.900;8.146;2023-09-19T04:14:55;13.30;99.90
36594;DHT22;22603;47.900;8.146;2023-09-19T04:17:42;13.30;99.90
36594;DHT22;22603;47.900;8.146;2023-09-19T04:20:30;13.30;99.90
36594;DHT22;22603;47.900;8.146;2023-09-19T04:23:17;13.30;99.90
36594;DHT22;22603;47.900;8.146;2023-09-19T04:26:05;13.30;99.90
36594;DHT22;22603;47.900;8.146;2023-09-19T04:28:52;13.30;99.90
36594;DHT22;22603;47.900;8.146;2023-09-19T04:31:39;13.30;99.90
36594;DHT22;22603;47.900;8.146;2023-09-19T04:34:29;13.30;99.90
36594;DHT22;22603;47.900;8.146;2023-09-19T04:37:17;13.30;99.90
36594;DHT22;22603;47.900;8.146;2023-09-19T04:40:05;13.30;99.90
36594;DHT22;22603;47.900;8.146;2023-09-19T04:42:53;13.30;99.90
36594;DHT22;22603;47.900;8.146;2023-09-19T04:45:41;13.30;99.90
36594;DHT22;22603;47.900;8.146;2023-09-19T04:48:28;13.20;99.90
36594;DHT22;22603;47.900;8.146;2023-09-19T04:51:15;13.30;99.90
36594;DHT22;22603;47.900;8.146;2023-09-19T04:54:05;13.30;99.90
36594;DHT22;22603;47.900;8.146;2023-09-19T04:56:52;13.30;99.90
36594;DHT22;22603;47.900;8.146;2023-09-19T04:59:39;13.30;99.90
36594;DHT22;22603;47.900;8.146;2023-09-19T05:02:29;13.30;99.90
36594;DHT22;22603;47.900;8.146;2023-09-19T05:05:17;13.30;99.90
36594;DHT22;22603;47.900;8.146;2023-09-19T05:08:05;13.30;99.90
36594;DHT22;22603;47.900;8.146;2023-09-19T05:10:54;13.30;99.90
36594;DHT22;22603;47.900;8.146;2023-09-19T05:13:41;13.30;99.90
36594;DHT22;22603;47.900;8.146;2023-09-19T05:16:29;13.30;99.90
36594;DHT22;22603;47.900;8.146;2023-09-19T05:19:17;13.30;99.90
36594;DHT22;22603;47.900;8.146;2023-09-19T05:22:03;13.30;99.90
36594;DHT22;22603;47.900;8.146;2023-09-19T05:24:52;13.30;99.90
36594;DHT22;22603;47.900;8.146;2023-09-19T05:27:40;13.20;99.90
36594;DHT22;22603;47.900;8.146;2023-09-19T05:30:28;13.30;99.90
36594;DHT22;22603;47.900;8.146;2023-09-19T05:33:14;13.30;99.90
36594;DHT22;22603;47.900;8.146;2023-09-19T05:36:04;13.20;99.90
36594;DHT22;22603;47.900;8.146;2023-09-19T05:38:50;13.30;99.90
36594;DHT22;22603;47.900;8.146;2023-09-19T05:41:38;13.30;99.90
36594;DHT22;22603;47.900;8.146;2023-09-19T05:44:27;13.30;99.90
36594;DHT22;22603;47.900;8.146;2023-09-19T05:47:13;13.30;99.90
36594;DHT22;22603;47.900;8.146;2023-09-19T05:50:03;13.30;99.90
36594;DHT22;22603;47.900;8.146;2023-09-19T05:52:54;13.40;99.90
36594;DHT22;22603;47.900;8.146;2023-09-19T05:55:41;13.40;99.90
36594;DHT22;22603;47.900;8.146;2023-09-19T05:58:31;13.50;99.90
36594;DHT22;22603;47.900;8.146;2023-09-19T06:01:20;13.60;99.90
36594;DHT22;22603;47.900;8.146;2023-09-19T06:04:07;13.70;99.90
36594;DHT22;22603;47.900;8.146;2023-09-19T06:06:54;13.80;99.90
36594;DHT22;22603;47.900;8.146;2023-09-19T06:09:41;13.80;99.90
36594;DHT22;22603;47.900;8.146;2023-09-19T06:12:27;13.90;99.90
36594;DHT22;22603;47.900;8.146;2023-09-19T06:15:16;13.90;99.90
36594;DHT22;22603;47.900;8.146;2023-09-19T06:18:10;13.90;99.90
36594;DHT22;22603;47.900;8.146;2023-09-19T06:21:01;13.80;99.90
36594;DHT22;22603;47.900;8.146;2023-09-19T06:23:51;13.90;99.90
36594;DHT22;22603;47.900;8.146;2023-09-19T06:26:38;14.00;99.90
36594;DHT22;22603;47.900;8.146;2023-09-19T06:29:25;14.00;99.90
36594;DHT22;22603;47.900;8.146;2023-09-19T06:32:12;14.00;99.90
36594;DHT22;22603;47.900;8.146;2023-09-19T06:35:00;13.90;99.90
36594;DHT22;22603;47.900;8.146;2023-09-19T06:37:48;14.00;99.90
36594;DHT22;22603;47.900;8.146;2023-09-19T06:40:35;14.00;99.90
36594;DHT22;22603;47.900;8.146;2023-09-19T06:43:22;14.00;99.90
36594;DHT22;22603;47.900;8.146;2023-09-19T06:46:09;14.10;99.90
36594;DHT22;22603;47.900;8.146;2023-09-19T06:48:58;14.50;99.90
36594;DHT22;22603;47.900;8.146;2023-09-19T06:51:46;15.40;99.90
36594;DHT22;22603;47.900;8.146;2023-09-19T06:54:35;16.50;99.90
36594;DHT22;22603;47.900;8.146;2023-09-19T06:57:22;17.20;99.90
36594;DHT22;22603;47.900;8.146;2023-09-19T07:00:10;17.80;99.90
36594;DHT22;22603;47.900;8.146;2023-09-19T07:03:05;17.70;99.90
36594;DHT22;22603;47.900;8.146;2023-09-19T07:05:56;18.00;99.90
36594;DHT22;22603;47.900;8.146;2023-09-19T07:08:45;18.60;99.90
36594;DHT22;22603;47.900;8.146;2023-09-19T07:11:32;19.20;99.90
36594;DHT22;22603;47.900;8.146;2023-09-19T07:14:19;18.80;99.90
36594;DHT22;22603;47.900;8.146;2023-09-19T07:17:05;19.20;99.90
36594;DHT22;22603;47.900;8.146;2023-09-19T07:19:53;19.80;99.90
36594;DHT22;22603;47.900;8.146;2023-09-19T07:22:40;20.30;99.90
36594;DHT22;22603;47.900;8.146;2023-09-19T07:25:28;19.90;99.90
36594;DHT22;22603;47.900;8.146;2023-09-19T07:28:15;18.90;99.90
36594;DHT22;22603;47.900;8.146;2023-09-19T07:31:02;19.60;99.90
36594;DHT22;22603;47.900;8.146;2023-09-19T07:33:51;19.50;99.90
36594;DHT22;22603;47.900;8.146;2023-09-19T07:36:37;19.10;99.90
36594;DHT22;22603;47.900;8.146;2023-09-19T07:39:25;19.60;99.90
36594;DHT22;22603;47.900;8.146;2023-09-19T07:42:13;19.90;99.90
36594;DHT22;22603;47.900;8.146;2023-09-19T07:45:04;20.20;99.90
36594;DHT22;22603;47.900;8.146;2023-09-19T07:47:52;21.50;99.90
36594;DHT22;22603;47.900;8.146;2023-09-19T07:50:39;22.00;99.90
36594;DHT22;22603;47.900;8.146;2023-09-19T07:53:25;21.50;99.90
36594;DHT22;22603;47.900;8.146;2023-09-19T07:56:21;21.30;99.90
36594;DHT22;22603;47.900;8.146;2023-09-19T07:59:10;20.50;99.90
36594;DHT22;22603;47.900;8.146;2023-09-19T08:01:57;20.00;99.90
36594;DHT22;22603;47.900;8.146;2023-09-19T08:04:45;19.60;99.90
36594;DHT22;22603;47.900;8.146;2023-09-19T08:07:32;19.60;99.90
36594;DHT22;22603;47.900;8.146;2023-09-19T08:10:19;19.30;99.90
36594;DHT22;22603;47.900;8.146;2023-09-19T08:13:07;18.80;99.90
36594;DHT22;22603;47.900;8.146;2023-09-19T08:16:02;18.50;99.90
36594;DHT22;22603;47.900;8.146;2023-09-19T08:18:49;18.00;99.90
36594;DHT22;22603;47.900;8.146;2023-09-19T08:21:40;18.00;99.90
36594;DHT22;22603;47.900;8.146;2023-09-19T08:24:31;17.30;99.90
36594;DHT22;22603;47.900;8.146;2023-09-19T08:27:18;17.30;99.90
36594;DHT22;22603;47.900;8.146;2023-09-19T08:30:06;17.20;99.90
36594;DHT22;22603;47.900;8.146;2023-09-19T08:32:58;17.40;99.90
36594;DHT22;22603;47.900;8.146;2023-09-19T08:35:45;17.70;99.90
36594;DHT22;22603;47.900;8.146;2023-09-19T08:38:33;17.60;99.90
36594;DHT22;22603;47.900;8.146;2023-09-19T08:41:20;17.50;99.90
36594;DHT22;22603;47.900;8.146;2023-09-19T08:44:06;17.60;99.90
36594;DHT22;22603;47.900;8.146;2023-09-19T08:47:06;17.50;99.90
36594;DHT22;22603;47.900;8.146;2023-09-19T08:50:00;17.70;99.90
36594;DHT22;22603;47.900;8.146;2023-09-19T08:52:51;17.70;99.90
36594;DHT22;22603;47.900;8.146;2023-09-19T08:55:40;17.90;99.90
36594;DHT22;22603;47.900;8.146;2023-09-19T08:58:41;17.90;99.90
36594;DHT22;22603;47.900;8.146;2023-09-19T09:01:31;17.90;99.90
36594;DHT22;22603;47.900;8.146;2023-09-19T09:04:18;18.10;99.90
36594;DHT22;22603;47.900;8.146;2023-09-19T09:07:10;18.20;99.90
36594;DHT22;22603;47.900;8.146;2023-09-19T09:09:57;18.00;99.90
36594;DHT22;22603;47.900;8.146;2023-09-19T09:12:45;18.10;99.90
36594;DHT22;22603;47.900;8.146;2023-09-19T09:15:36;18.30;99.90
36594;DHT22;22603;47.900;8.146;2023-09-19T09:18:22;18.50;99.90
36594;DHT22;22603;47.900;8.146;2023-09-19T09:21:09;18.80;99.90
36594;DHT22;22603;47.900;8.146;2023-09-19T09:23:59;18.80;99.90
36594;DHT22;22603;47.900;8.146;2023-09-19T09:26:46;18.70;99.90
36594;DHT22;22603;47.900;8.146;2023-09-19T09:29:44;18.60;99.90
36594;DHT22;22603;47.900;8.146;2023-09-19T09:32:32;18.90;99.90
36594;DHT22;22603;47.900;8.146;2023-09-19T09:35:24;19.10;99.90
36594;DHT22;22603;47.900;8.146;2023-09-19T09:38:12;19.40;99.90
36594;DHT22;22603;47.900;8.146;2023-09-19T09:41:00;19.30;99.90
36594;DHT22;22603;47.900;8.146;2023-09-19T09:43:52;19.60;99.90
36594;DHT22;22603;47.900;8.146;2023-09-19T09:46:42;19.70;99.90
36594;DHT22;22603;47.900;8.146;2023-09-19T09:50:05;20.10;99.90
36594;DHT22;22603;47.900;8.146;2023-09-19T09:53:02;20.30;99.90
36594;DHT22;22603;47.900;8.146;2023-09-19T09:56:01;20.10;99.90
36594;DHT22;22603;47.900;8.146;2023-09-19T09:58:52;20.00;99.90
36594;DHT22;22603;47.900;8.146;2023-09-19T10:01:49;19.90;99.90
36594;DHT22;22603;47.900;8.146;2023-09-19T10:04:36;21.00;99.90
36594;DHT22;22603;47.900;8.146;2023-09-19T10:07:31;21.10;99.90
36594;DHT22;22603;47.900;8.146;2023-09-19T10:10:33;20.60;99.90
36594;DHT22;22603;47.900;8.146;2023-09-19T10:13:31;21.30;99.90
36594;DHT22;22603;47.900;8.146;2023-09-19T10:16:19;20.90;99.90
36594;DHT22;22603;47.900;8.146;2023-09-19T10:19:07;21.00;99.90
36594;DHT22;22603;47.900;8.146;2023-09-19T10:21:55;21.70;99.90
36594;DHT22;22603;47.900;8.146;2023-09-19T10:24:43;21.60;99.90
36594;DHT22;22603;47.900;8.146;2023-09-19T10:27:46;21.60;99.90
36594;DHT22;22603;47.900;8.146;2023-09-19T10:30:37;21.00;99.90
36594;DHT22;22603;47.900;8.146;2023-09-19T10:33:25;21.60;99.90
36594;DHT22;22603;47.900;8.146;2023-09-19T10:36:13;21.90;99.90
36594;DHT22;22603;47.900;8.146;2023-09-19T10:39:00;21.80;99.90
36594;DHT22;22603;47.900;8.146;2023-09-19T10:41:53;21.50;99.90
36594;DHT22;22603;47.900;8.146;2023-09-19T10:44:45;22.40;99.90
36594;DHT22;22603;47.900;8.146;2023-09-19T10:47:36;22.40;99.90
36594;DHT22;22603;47.900;8.146;2023-09-19T10:50:23;22.20;99.90
36594;DHT22;22603;47.900;8.146;2023-09-19T10:53:12;22.20;99.90
36594;DHT22;22603;47.900;8.146;2023-09-19T10:56:02;21.80;99.90
36594;DHT22;22603;47.900;8.146;2023-09-19T10:59:07;21.70;99.90
36594;DHT22;22603;47.900;8.146;2023-09-19T11:01:56;20.80;99.90
36594;DHT22;22603;47.900;8.146;2023-09-19T11:04:45;21.20;99.90
36594;DHT22;22603;47.900;8.146;2023-09-19T11:07:57;21.30;99.90
36594;DHT22;22603;47.900;8.146;2023-09-19T11:10:45;21.00;99.90
36594;DHT22;22603;47.900;8.146;2023-09-19T11:13:32;21.20;99.90
36594;DHT22;22603;47.900;8.146;2023-09-19T11:16:22;22.30;99.90
36594;DHT22;22603;47.900;8.146;2023-09-19T11:19:09;21.50;99.90
36594;DHT22;22603;47.900;8.146;2023-09-19T11:21:58;22.10;99.90
36594;DHT22;22603;47.900;8.146;2023-09-19T11:24:45;22.00;99.90
36594;DHT22;22603;47.900;8.146;2023-09-19T11:27:32;22.10;99.90
36594;DHT22;22603;47.900;8.146;2023-09-19T11:30:26;22.40;99.90
36594;DHT22;22603;47.900;8.146;2023-09-19T11:33:17;22.70;99.90
36594;DHT22;22603;47.900;8.146;2023-09-19T11:36:07;22.90;99.90
36594;DHT22;22603;47.900;8.146;2023-09-19T11:39:01;23.10;99.90
36594;DHT22;22603;47.900;8.146;2023-09-19T11:41:53;23.00;99.90
36594;DHT22;22603;47.900;8.146;2023-09-19T11:44:42;23.20;99.90
36594;DHT22;22603;47.900;8.146;2023-09-19T11:47:30;22.40;99.90
36594;DHT22;22603;47.900;8.146;2023-09-19T11:50:19;22.30;99.90
36594;DHT22;22603;47.900;8.146;2023-09-19T11:53:07;22.60;99.90
36594;DHT22;22603;47.900;8.146;2023-09-19T11:55:58;23.60;99.90
36594;DHT22;22603;47.900;8.146;2023-09-19T11:58:46;23.30;99.90
36594;DHT22;22603;47.900;8.146;2023-09-19T12:01:43;23.50;99.90
36594;DHT22;22603;47.900;8.146;2023-09-19T12:04:44;22.80;99.90
36594;DHT22;22603;47.900;8.146;2023-09-19T12:07:42;23.20;99.90
36594;DHT22;22603;47.900;8.146;2023-09-19T12:10:31;22.40;99.90
36594;DHT22;22603;47.900;8.146;2023-09-19T12:13:20;21.40;99.90
36594;DHT22;22603;47.900;8.146;2023-09-19T12:16:12;21.40;99.90
36594;DHT22;22603;47.900;8.146;2023-09-19T12:19:17;21.40;99.90
36594;DHT22;22603;47.900;8.146;2023-09-19T12:22:07;21.30;99.90
36594;DHT22;22603;47.900;8.146;2023-09-19T12:25:05;21.10;99.90
36594;DHT22;22603;47.900;8.146;2023-09-19T12:27:53;20.80;99.90
36594;DHT22;22603;47.900;8.146;2023-09-19T12:30:42;20.60;99.90
36594;DHT22;22603;47.900;8.146;2023-09-19T12:33:29;20.40;99.90
36594;DHT22;22603;47.900;8.146;2023-09-19T12:36:21;20.70;99.90
36594;DHT22;22603;47.900;8.146;2023-09-19T12:39:23;20.20;99.90
36594;DHT22;22603;47.900;8.146;2023-09-19T12:42:11;20.30;99.90
36594;DHT22;22603;47.900;8.146;2023-09-19T12:44:59;20.40;99.90
36594;DHT22;22603;47.900;8.146;2023-09-19T12:48:19;20.40;99.90
36594;DHT22;22603;47.900;8.146;2023-09-19T12:51:15;20.20;99.90
36594;DHT22;22603;47.900;8.146;2023-09-19T12:54:08;20.40;99.90
36594;DHT22;22603;47.900;8.146;2023-09-19T12:56:56;21.00;99.90
36594;DHT22;22603;47.900;8.146;2023-09-19T12:59:43;21.00;99.90
36594;DHT22;22603;47.900;8.146;2023-09-19T13:02:30;21.40;99.90
36594;DHT22;22603;47.900;8.146;2023-09-19T13:05:19;21.60;99.90
36594;DHT22;22603;47.900;8.146;2023-09-19T13:08:18;20.80;99.90
36594;DHT22;22603;47.900;8.146;2023-09-19T13:11:07;20.80;99.90
36594;DHT22;22603;47.900;8.146;2023-09-19T13:14:15;20.50;99.90
36594;DHT22;22603;47.900;8.146;2023-09-19T13:17:03;20.50;99.90
36594;DHT22;22603;47.900;8.146;2023-09-19T13:19:55;20.60;99.90
36594;DHT22;22603;47.900;8.146;2023-09-19T13:22:45;21.10;99.90
36594;DHT22;22603;47.900;8.146;2023-09-19T13:25:35;20.80;99.90
36594;DHT22;22603;47.900;8.146;2023-09-19T13:28:25;20.80;99.90
36594;DHT22;22603;47.900;8.146;2023-09-19T13:31:14;20.20;99.90
36594;DHT22;22603;47.900;8.146;2023-09-19T13:34:01;20.00;99.90
36594;DHT22;22603;47.900;8.146;2023-09-19T13:36:49;20.00;99.90
36594;DHT22;22603;47.900;8.146;2023-09-19T13:39:37;19.70;99.90
36594;DHT22;22603;47.900;8.146;2023-09-19T13:42:28;19.50;99.90
36594;DHT22;22603;47.900;8.146;2023-09-19T13:45:15;19.70;99.90
36594;DHT22;22603;47.900;8.146;2023-09-19T13:48:04;19.80;99.90
36594;DHT22;22603;47.900;8.146;2023-09-19T13:50:51;19.40;99.90
36594;DHT22;22603;47.900;8.146;2023-09-19T13:53:37;19.80;99.90
36594;DHT22;22603;47.900;8.146;2023-09-19T13:56:26;19.60;99.90
36594;DHT22;22603;47.900;8.146;2023-09-19T13:59:15;19.40;99.90
36594;DHT22;22603;47.900;8.146;2023-09-19T14:02:03;19.70;99.90
36594;DHT22;22603;47.900;8.146;2023-09-19T14:04:52;20.00;99.90
36594;DHT22;22603;47.900;8.146;2023-09-19T14:07:40;19.90;99.90
36594;DHT22;22603;47.900;8.146;2023-09-19T14:10:31;19.90;99.90
36594;DHT22;22603;47.900;8.146;2023-09-19T14:13:20;20.20;99.90
36594;DHT22;22603;47.900;8.146;2023-09-19T14:16:07;20.50;99.90
36594;DHT22;22603;47.900;8.146;2023-09-19T14:18:54;20.70;99.90
36594;DHT22;22603;47.900;8.146;2023-09-19T14:21:41;20.80;99.90
36594;DHT22;22603;47.900;8.146;2023-09-19T14:24:27;20.80;99.90
36594;DHT22;22603;47.900;8.146;2023-09-19T14:27:14;20.50;99.90
36594;DHT22;22603;47.900;8.146;2023-09-19T14:30:03;20.70;99.90
36594;DHT22;22603;47.900;8.146;2023-09-19T14:32:50;20.90;99.90
36594;DHT22;22603;47.900;8.146;2023-09-19T14:35:37;21.00;99.90
36594;DHT22;22603;47.900;8.146;2023-09-19T14:38:24;20.40;99.90
36594;DHT22;22603;47.900;8.146;2023-09-19T14:41:12;20.30;99.90
36594;DHT22;22603;47.900;8.146;2023-09-19T14:44:01;20.60;99.90
36594;DHT22;22603;47.900;8.146;2023-09-19T14:46:49;20.60;99.90
36594;DHT22;22603;47.900;8.146;2023-09-19T14:49:36;20.90;99.90
36594;DHT22;22603;47.900;8.146;2023-09-19T14:52:24;20.70;99.90
36594;DHT22;22603;47.900;8.146;2023-09-19T14:55:14;20.60;99.90
36594;DHT22;22603;47.900;8.146;2023-09-19T14:58:00;20.40;99.90
36594;DHT22;22603;47.900;8.146;2023-09-19T15:00:48;19.60;99.90
36594;DHT22;22603;47.900;8.146;2023-09-19T15:03:40;19.90;99.90
36594;DHT22;22603;47.900;8.146;2023-09-19T15:06:28;19.90;99.90
36594;DHT22;22603;47.900;8.146;2023-09-19T15:09:15;20.00;99.90
36594;DHT22;22603;47.900;8.146;2023-09-19T15:12:05;20.10;99.90
36594;DHT22;22603;47.900;8.146;2023-09-19T15:14:52;20.00;99.90
36594;DHT22;22603;47.900;8.146;2023-09-19T15:17:39;20.30;99.90
36594;DHT22;22603;47.900;8.146;2023-09-19T15:20:28;20.30;99.90
36594;DHT22;22603;47.900;8.146;2023-09-19T15:23:16;20.30;99.90
36594;DHT22;22603;47.900;8.146;2023-09-19T15:26:04;20.30;99.90
36594;DHT22;22603;47.900;8.146;2023-09-19T15:28:52;20.20;99.90
36594;DHT22;22603;47.900;8.146;2023-09-19T15:31:40;20.00;99.90
36594;DHT22;22603;47.900;8.146;2023-09-19T15:34:28;19.90;99.90
36594;DHT22;22603;47.900;8.146;2023-09-19T15:37:16;20.20;99.90
36594;DHT22;22603;47.900;8.146;2023-09-19T15:40:06;20.30;99.90
36594;DHT22;22603;47.900;8.146;2023-09-19T15:42:56;20.00;99.90
36594;DHT22;22603;47.900;8.146;2023-09-19T15:45:43;20.00;99.90
36594;DHT22;22603;47.900;8.146;2023-09-19T15:48:32;19.80;99.90
36594;DHT22;22603;47.900;8.146;2023-09-19T15:51:19;20.00;99.90
36594;DHT22;22603;47.900;8.146;2023-09-19T15:54:10;20.00;99.90
36594;DHT22;22603;47.900;8.146;2023-09-19T15:56:59;19.60;99.90
36594;DHT22;22603;47.900;8.146;2023-09-19T15:59:46;19.40;99.90
36594;DHT22;22603;47.900;8.146;2023-09-19T16:02:33;19.50;99.90
36594;DHT22;22603;47.900;8.146;2023-09-19T16:05:20;19.50;99.90
36594;DHT22;22603;47.900;8.146;2023-09-19T16:08:07;19.50;99.90
36594;DHT22;22603;47.900;8.146;2023-09-19T16:10:55;19.60;99.90
36594;DHT22;22603;47.900;8.146;2023-09-19T16:13:42;19.70;99.90
36594;DHT22;22603;47.900;8.146;2023-09-19T16:16:31;19.70;99.90
36594;DHT22;22603;47.900;8.146;2023-09-19T16:19:18;19.60;99.90
36594;DHT22;22603;47.900;8.146;2023-09-19T16:22:07;19.40;99.90
36594;DHT22;22603;47.900;8.146;2023-09-19T16:24:54;19.40;99.90
36594;DHT22;22603;47.900;8.146;2023-09-19T16:27:42;19.30;99.90
36594;DHT22;22603;47.900;8.146;2023-09-19T16:30:31;19.00;99.90
36594;DHT22;22603;47.900;8.146;2023-09-19T16:33:19;18.90;99.90
36594;DHT22;22603;47.900;8.146;2023-09-19T16:36:08;18.70;99.90
36594;DHT22;22603;47.900;8.146;2023-09-19T16:38:55;18.40;99.90
36594;DHT22;22603;47.900;8.146;2023-09-19T16:41:42;18.20;99.90
36594;DHT22;22603;47.900;8.146;2023-09-19T16:44:32;18.00;99.90
36594;DHT22;22603;47.900;8.146;2023-09-19T16:47:19;17.90;99.90
36594;DHT22;22603;47.900;8.146;2023-09-19T16:50:07;17.60;99.90
36594;DHT22;22603;47.900;8.146;2023-09-19T16:52:56;17.40;99.90
36594;DHT22;22603;47.900;8.146;2023-09-19T16:55:43;17.20;99.90
36594;DHT22;22603;47.900;8.146;2023-09-19T16:58:30;17.00;99.90
36594;DHT22;22603;47.900;8.146;2023-09-19T17:01:20;16.80;99.90
36594;DHT22;22603;47.900;8.146;2023-09-19T17:04:10;16.60;99.90
36594;DHT22;22603;47.900;8.146;2023-09-19T17:06:57;16.50;99.90
36594;DHT22;22603;47.900;8.146;2023-09-19T17:09:44;16.40;99.90
36594;DHT22;22603;47.900;8.146;2023-09-19T17:12:33;16.20;99.90
36594;DHT22;22603;47.900;8.146;2023-09-19T17:15:21;16.10;99.90
36594;DHT22;22603;47.900;8.146;2023-09-19T17:18:11;16.10;99.90
36594;DHT22;22603;47.900;8.146;2023-09-19T17:20:58;16.00;99.90
36594;DHT22;22603;47.900;8.146;2023-09-19T17:23:45;15.90;99.90
36594;DHT22;22603;47.900;8.146;2023-09-19T17:26:32;15.80;99.90
36594;DHT22;22603;47.900;8.146;2023-09-19T17:29:18;15.60;99.90
36594;DHT22;22603;47.900;8.146;2023-09-19T17:32:05;15.40;99.90
36594;DHT22;22603;47.900;8.146;2023-09-19T17:34:54;15.30;99.90
36594;DHT22;22603;47.900;8.146;2023-09-19T17:37:42;15.20;99.90
36594;DHT22;22603;47.900;8.146;2023-09-19T17:40:29;15.20;99.90
36594;DHT22;22603;47.900;8.146;2023-09-19T17:43:16;15.10;99.90
36594;DHT22;22603;47.900;8.146;2023-09-19T17:46:07;14.90;99.90
36594;DHT22;22603;47.900;8.146;2023-09-19T17:48:57;14.80;99.90